createdAt,value
2017-05-13T00:00:25.803Z,12.40
2017-05-13T00:02:53.735Z,12.30
2017-05-13T00:05:20.963Z,12.30
2017-05-13T00:07:48.278Z,12.30
2017-05-13T00:10:15.531Z,12.30
2017-05-13T00:12:42.711Z,12.20
2017-05-13T00:15:09.951Z,12.10
2017-05-13T00:17:37.241Z,12.10
2017-05-13T00:20:04.386Z,12.10
2017-05-13T00:22:31.557Z,12.10
2017-05-13T00:24:58.765Z,12.10
2017-05-13T00:27:25.984Z,12.20
2017-05-13T00:29:53.179Z,12.10
2017-05-13T00:32:20.359Z,12.00
2017-05-13T00:34:47.579Z,11.90
2017-05-13T00:37:14.740Z,11.80
2017-05-13T00:39:41.892Z,11.80
2017-05-13T00:42:09.073Z,11.80
2017-05-13T00:44:37.028Z,11.80
2017-05-13T00:47:04.920Z,11.90
2017-05-13T00:49:32.099Z,11.80
2017-05-13T00:51:59.355Z,11.70
2017-05-13T00:54:26.525Z,11.80
2017-05-13T00:56:53.665Z,11.80
2017-05-13T00:59:21.062Z,11.90
2017-05-13T01:01:48.984Z,11.90
2017-05-13T01:04:16.225Z,12.00
2017-05-13T01:06:43.472Z,12.00
2017-05-13T01:09:10.677Z,11.90
2017-05-13T01:11:38.616Z,11.90
2017-05-13T01:14:05.887Z,11.90
2017-05-13T01:16:33.795Z,11.90
2017-05-13T01:19:00.994Z,11.80
2017-05-13T01:21:28.316Z,11.80
2017-05-13T01:23:55.689Z,11.80
2017-05-13T01:26:22.880Z,11.80
2017-05-13T01:28:50.783Z,11.90
2017-05-13T01:31:17.932Z,11.90
2017-05-13T01:33:45.115Z,11.90
2017-05-13T01:36:12.260Z,11.90
2017-05-13T01:38:39.487Z,11.90
2017-05-13T01:41:06.668Z,11.80
2017-05-13T01:43:33.808Z,11.90
2017-05-13T01:46:00.988Z,11.80
2017-05-13T01:48:28.955Z,11.70
2017-05-13T01:50:56.898Z,11.70
2017-05-13T01:53:24.060Z,11.80
2017-05-13T01:55:52.691Z,11.60
2017-05-13T01:58:19.908Z,11.50
2017-05-13T02:00:47.060Z,11.50
2017-05-13T02:03:15.024Z,11.50
2017-05-13T02:05:42.957Z,11.50
2017-05-13T02:08:10.126Z,11.50
2017-05-13T02:10:37.296Z,11.50
2017-05-13T02:13:04.531Z,11.50
2017-05-13T02:15:35.603Z,11.50
2017-05-13T02:18:02.939Z,11.40
2017-05-13T02:20:30.196Z,11.30
2017-05-13T02:22:57.380Z,11.30
2017-05-13T02:25:24.573Z,11.30
2017-05-13T02:27:52.484Z,11.40
2017-05-13T02:30:19.689Z,11.30
2017-05-13T02:32:46.880Z,11.30
2017-05-13T02:35:14.244Z,11.20
2017-05-13T02:37:41.433Z,11.10
2017-05-13T02:40:08.655Z,11.10
2017-05-13T02:42:35.808Z,11.00
2017-05-13T02:45:03.084Z,11.00
2017-05-13T02:47:30.310Z,11.00
2017-05-13T02:49:57.481Z,10.90
2017-05-13T02:52:24.681Z,11.00
2017-05-13T02:54:51.864Z,11.00
2017-05-13T02:57:19.022Z,11.00
2017-05-13T02:59:46.194Z,11.00
2017-05-13T03:02:13.407Z,11.10
2017-05-13T03:04:40.820Z,11.10
2017-05-13T03:07:07.980Z,11.10
2017-05-13T03:09:35.192Z,11.20
2017-05-13T03:12:02.381Z,11.30
2017-05-13T03:14:29.548Z,11.30
2017-05-13T03:16:56.730Z,11.40
2017-05-13T03:19:24.104Z,11.50
2017-05-13T03:21:52.033Z,11.40
2017-05-13T03:24:19.201Z,11.30
2017-05-13T03:26:46.396Z,11.30
2017-05-13T03:29:13.724Z,11.30
2017-05-13T03:31:41.655Z,11.30
2017-05-13T03:34:08.912Z,11.20
2017-05-13T03:36:36.098Z,11.10
2017-05-13T03:39:04.028Z,11.00
2017-05-13T03:41:31.193Z,10.90
2017-05-13T03:43:58.432Z,10.80
2017-05-13T03:46:25.657Z,10.70
2017-05-13T03:48:52.812Z,10.70
2017-05-13T03:51:19.970Z,10.70
2017-05-13T03:53:47.480Z,10.70
2017-05-13T03:56:15.571Z,10.60
2017-05-13T03:58:42.712Z,10.70
2017-05-13T04:01:11.727Z,10.80
2017-05-13T04:03:38.881Z,10.80
2017-05-13T04:06:06.050Z,10.80
2017-05-13T04:08:33.224Z,10.80
2017-05-13T04:11:01.173Z,10.80
2017-05-13T04:13:28.304Z,10.80
2017-05-13T04:15:55.613Z,10.80
2017-05-13T04:18:23.526Z,10.80
2017-05-13T04:20:50.719Z,10.80
2017-05-13T04:23:18.705Z,10.80
2017-05-13T04:25:46.631Z,10.90
2017-05-13T04:28:13.918Z,10.90
2017-05-13T04:30:41.865Z,10.90
2017-05-13T04:33:09.049Z,10.90
2017-05-13T04:35:36.255Z,10.70
2017-05-13T04:38:03.509Z,10.60
2017-05-13T04:40:30.701Z,10.80
2017-05-13T04:42:57.967Z,10.80
2017-05-13T04:45:25.356Z,10.80
2017-05-13T04:47:52.548Z,10.70
2017-05-13T04:50:20.474Z,10.70
2017-05-13T04:52:47.676Z,10.70
2017-05-13T04:55:14.831Z,10.80
2017-05-13T04:57:42.177Z,10.80
2017-05-13T05:00:09.516Z,10.80
2017-05-13T05:02:37.435Z,10.80
2017-05-13T05:05:04.603Z,10.90
2017-05-13T05:07:31.821Z,11.00
2017-05-13T05:09:58.997Z,11.00
2017-05-13T05:12:26.172Z,11.00
2017-05-13T05:14:54.115Z,11.20
2017-05-13T05:17:21.356Z,11.40
2017-05-13T05:19:48.499Z,11.60
2017-05-13T05:22:15.700Z,11.90
2017-05-13T05:24:43.640Z,12.00
2017-05-13T05:27:10.845Z,12.40
2017-05-13T05:29:38.009Z,12.60
2017-05-13T05:32:05.281Z,12.80
2017-05-13T05:34:32.562Z,13.00
2017-05-13T05:37:00.476Z,13.00
2017-05-13T05:39:27.775Z,13.10
2017-05-13T05:41:54.952Z,13.30
2017-05-13T05:44:22.101Z,13.30
2017-05-13T05:46:49.315Z,13.50
2017-05-13T05:49:16.463Z,13.90
2017-05-13T05:51:43.663Z,14.20
2017-05-13T05:54:10.825Z,14.40
2017-05-13T05:56:38.051Z,14.60
2017-05-13T05:59:05.235Z,14.80
2017-05-13T06:01:32.415Z,14.90
2017-05-13T06:03:59.632Z,15.20
2017-05-13T06:06:26.847Z,15.50
2017-05-13T06:08:54.009Z,15.80
2017-05-13T06:11:21.187Z,16.00
2017-05-13T06:13:48.357Z,16.50
2017-05-13T06:16:15.561Z,17.30
2017-05-13T06:18:42.760Z,18.60
2017-05-13T06:21:09.939Z,19.40
2017-05-13T06:23:37.851Z,18.80
2017-05-13T06:26:05.042Z,18.10
2017-05-13T06:28:33.057Z,17.50
2017-05-13T06:31:00.393Z,17.10
2017-05-13T06:33:27.553Z,16.80
2017-05-13T06:35:54.929Z,17.60
2017-05-13T06:38:22.133Z,18.50
2017-05-13T06:40:50.107Z,18.30
2017-05-13T06:43:17.323Z,19.40
2017-05-13T06:45:44.471Z,21.20
2017-05-13T06:48:11.655Z,22.50
2017-05-13T06:50:38.846Z,23.30
2017-05-13T06:53:06.055Z,24.00
2017-05-13T06:55:34.099Z,22.50
2017-05-13T06:58:01.275Z,21.70
2017-05-13T07:00:28.468Z,21.50
2017-05-13T07:02:55.676Z,21.30
2017-05-13T07:05:23.775Z,20.30
2017-05-13T07:07:52.230Z,19.20
2017-05-13T07:10:19.645Z,18.70
2017-05-13T07:12:46.818Z,18.20
2017-05-13T07:15:14.935Z,17.90
2017-05-13T07:17:42.304Z,17.80
2017-05-13T07:20:09.536Z,17.60
2017-05-13T07:22:36.814Z,17.60
2017-05-13T07:25:04.952Z,17.60
2017-05-13T07:27:32.152Z,17.50
2017-05-13T07:30:00.343Z,17.50
2017-05-13T07:32:27.565Z,17.40
2017-05-13T07:34:54.717Z,17.20
2017-05-13T07:37:22.009Z,17.20
2017-05-13T07:39:49.959Z,17.30
2017-05-13T07:42:17.361Z,17.20
2017-05-13T07:44:44.650Z,17.40
2017-05-13T07:47:11.836Z,18.10
2017-05-13T07:49:39.024Z,19.90
2017-05-13T07:52:06.279Z,21.00
2017-05-13T07:54:33.451Z,21.10
2017-05-13T07:57:00.647Z,21.10
2017-05-13T07:59:27.888Z,20.90
2017-05-13T08:01:55.027Z,20.20
2017-05-13T08:04:22.964Z,19.90
2017-05-13T08:06:50.223Z,20.20
2017-05-13T08:09:17.426Z,20.20
2017-05-13T08:11:44.703Z,20.60
2017-05-13T08:14:11.852Z,21.30
2017-05-13T08:16:39.025Z,20.90
2017-05-13T08:19:06.263Z,20.80
2017-05-13T08:21:33.412Z,21.40
2017-05-13T08:24:00.680Z,22.10
2017-05-13T08:26:27.860Z,22.10
2017-05-13T08:28:55.045Z,22.50
2017-05-13T08:31:22.268Z,22.60
2017-05-13T08:33:49.491Z,22.60
2017-05-13T08:36:17.411Z,22.80
2017-05-13T08:38:44.606Z,22.80
2017-05-13T08:41:11.768Z,22.50
2017-05-13T08:43:39.768Z,22.80
2017-05-13T08:46:06.971Z,22.90
2017-05-13T08:48:34.404Z,23.20
2017-05-13T08:51:01.599Z,22.70
2017-05-13T08:53:29.520Z,22.40
2017-05-13T08:55:56.715Z,23.00
2017-05-13T08:58:24.824Z,23.80
2017-05-13T09:00:53.111Z,23.50
2017-05-13T09:03:20.920Z,23.50
2017-05-13T09:05:48.871Z,23.80
2017-05-13T09:08:16.047Z,23.90
2017-05-13T09:10:44.177Z,24.40
2017-05-13T09:13:11.373Z,25.00
2017-05-13T09:15:38.636Z,24.80
2017-05-13T09:18:05.947Z,24.80
2017-05-13T09:20:33.865Z,25.10
2017-05-13T09:23:01.168Z,24.90
2017-05-13T09:25:28.398Z,24.90
2017-05-13T09:27:55.616Z,24.60
2017-05-13T09:30:22.753Z,24.40
2017-05-13T09:32:49.919Z,24.10
2017-05-13T09:35:17.120Z,23.70
2017-05-13T09:37:45.023Z,23.20
2017-05-13T09:40:12.156Z,22.50
2017-05-13T09:42:40.149Z,23.10
2017-05-13T09:45:07.707Z,23.60
2017-05-13T09:47:35.106Z,23.50
2017-05-13T09:50:02.452Z,23.70
2017-05-13T09:52:29.663Z,24.10
2017-05-13T09:54:56.821Z,24.30
2017-05-13T09:57:25.805Z,24.60
2017-05-13T09:59:52.982Z,23.90
2017-05-13T10:02:20.139Z,24.50
2017-05-13T10:04:47.336Z,24.70
2017-05-13T10:07:14.582Z,24.50
2017-05-13T10:09:42.540Z,23.90
2017-05-13T10:12:10.481Z,22.80
2017-05-13T10:14:37.714Z,22.70
2017-05-13T10:17:04.936Z,23.60
2017-05-13T10:19:32.095Z,23.90
2017-05-13T10:21:59.327Z,24.10
2017-05-13T10:24:26.591Z,24.80
2017-05-13T10:26:53.732Z,24.70
2017-05-13T10:29:21.048Z,24.70
2017-05-13T10:31:49.084Z,25.50
2017-05-13T10:34:16.245Z,25.80
2017-05-13T10:36:43.465Z,25.70
2017-05-13T10:39:10.668Z,26.00
2017-05-13T10:41:37.893Z,26.00
2017-05-13T10:44:05.115Z,25.90
2017-05-13T10:46:32.312Z,26.20
2017-05-13T10:48:59.479Z,26.20
2017-05-13T10:51:27.416Z,26.20
2017-05-13T10:53:54.611Z,26.50
2017-05-13T10:56:22.708Z,27.00
2017-05-13T10:58:50.015Z,27.20
2017-05-13T11:01:17.219Z,26.80
2017-05-13T11:03:44.364Z,27.20
2017-05-13T11:06:11.655Z,27.80
2017-05-13T11:08:38.824Z,27.80
2017-05-13T11:11:06.755Z,27.70
2017-05-13T11:13:33.971Z,28.20
2017-05-13T11:16:01.161Z,28.10
2017-05-13T11:18:28.365Z,28.00
2017-05-13T11:20:55.624Z,26.70
2017-05-13T11:23:22.816Z,25.20
2017-05-13T11:25:49.984Z,24.30
2017-05-13T11:28:17.206Z,23.90
2017-05-13T11:30:44.364Z,23.80
2017-05-13T11:33:11.601Z,23.00
2017-05-13T11:35:38.777Z,22.80
2017-05-13T11:38:05.958Z,23.20
2017-05-13T11:40:33.212Z,23.90
2017-05-13T11:43:00.384Z,24.50
2017-05-13T11:45:27.537Z,25.10
2017-05-13T11:47:54.732Z,25.10
2017-05-13T11:50:21.945Z,25.30
2017-05-13T11:52:49.120Z,25.30
2017-05-13T11:55:16.333Z,25.70
2017-05-13T11:57:43.574Z,26.00
2017-05-13T12:00:10.764Z,26.80
2017-05-13T12:02:37.957Z,28.00
2017-05-13T12:05:05.585Z,27.60
2017-05-13T12:07:32.752Z,27.40
2017-05-13T12:10:00.005Z,27.90
2017-05-13T12:12:27.948Z,27.90
2017-05-13T12:14:55.128Z,28.10
2017-05-13T12:17:23.057Z,27.90
2017-05-13T12:19:50.250Z,28.90
2017-05-13T12:22:18.570Z,29.00
2017-05-13T12:24:46.232Z,29.30
2017-05-13T12:27:13.944Z,29.30
2017-05-13T12:29:41.879Z,29.50
2017-05-13T12:32:09.045Z,29.70
2017-05-13T12:34:36.187Z,28.70
2017-05-13T12:37:04.183Z,28.30
2017-05-13T12:39:32.163Z,27.80
2017-05-13T12:41:59.358Z,29.10
2017-05-13T12:44:26.577Z,29.40
2017-05-13T12:46:53.735Z,29.20
2017-05-13T12:49:20.898Z,29.10
2017-05-13T12:51:48.090Z,29.90
2017-05-13T12:54:16.020Z,29.60
2017-05-13T12:56:43.240Z,28.90
2017-05-13T12:59:10.527Z,29.90
2017-05-13T13:01:37.790Z,31.40
2017-05-13T13:04:05.011Z,31.50
2017-05-13T13:06:32.320Z,31.70
2017-05-13T13:09:00.229Z,32.00
2017-05-13T13:11:27.493Z,31.30
2017-05-13T13:13:54.695Z,30.90
2017-05-13T13:16:22.627Z,31.80
2017-05-13T13:18:55.258Z,32.60
2017-05-13T13:21:22.416Z,31.10
2017-05-13T13:23:49.596Z,31.40
2017-05-13T13:26:16.868Z,32.50
2017-05-13T13:28:44.055Z,33.20
2017-05-13T13:31:11.344Z,31.00
2017-05-13T13:33:38.618Z,30.70
2017-05-13T13:36:05.826Z,30.00
2017-05-13T13:38:32.994Z,30.30
2017-05-13T13:41:00.173Z,30.20
2017-05-13T13:43:27.400Z,31.30
2017-05-13T13:45:54.665Z,31.10
2017-05-13T13:48:21.865Z,32.80
2017-05-13T13:50:49.055Z,33.50
2017-05-13T13:53:16.356Z,33.30
2017-05-13T13:55:44.347Z,33.10
2017-05-13T13:58:11.607Z,32.40
2017-05-13T14:00:38.777Z,32.10
2017-05-13T14:03:05.992Z,31.50
2017-05-13T14:05:33.223Z,31.10
2017-05-13T14:08:00.419Z,32.20
2017-05-13T14:10:27.625Z,30.30
2017-05-13T14:12:55.593Z,29.80
2017-05-13T14:15:31.802Z,29.40
2017-05-13T14:17:59.156Z,30.90
2017-05-13T14:20:26.384Z,32.20
2017-05-13T14:22:53.564Z,31.20
2017-05-13T14:25:20.956Z,29.10
2017-05-13T14:27:48.889Z,27.80
2017-05-13T14:30:16.128Z,28.80
2017-05-13T14:32:43.371Z,29.80
2017-05-13T14:35:10.675Z,29.20
2017-05-13T14:37:38.609Z,28.90
2017-05-13T14:40:05.901Z,29.70
2017-05-13T14:42:34.645Z,29.90
2017-05-13T14:45:01.819Z,29.20
2017-05-13T14:47:29.033Z,28.20
2017-05-13T14:49:56.287Z,26.70
2017-05-13T14:52:23.619Z,25.70
2017-05-13T14:54:50.800Z,25.00
2017-05-13T14:57:18.012Z,24.70
2017-05-13T14:59:45.268Z,24.30
2017-05-13T15:02:12.512Z,23.80
2017-05-13T15:04:40.667Z,23.50
2017-05-13T15:07:08.642Z,23.30
2017-05-13T15:09:36.609Z,23.40
2017-05-13T15:12:04.569Z,23.40
2017-05-13T15:14:32.779Z,23.30
2017-05-13T15:17:00.027Z,22.90
2017-05-13T15:19:27.227Z,22.40
2017-05-13T15:21:54.562Z,22.20
2017-05-13T15:24:21.818Z,22.90
2017-05-13T15:26:48.963Z,24.30
2017-05-13T15:29:16.154Z,24.60
2017-05-13T15:31:44.122Z,23.60
2017-05-13T15:34:12.051Z,22.80
2017-05-13T15:36:39.292Z,22.60
2017-05-13T15:39:06.541Z,22.30
2017-05-13T15:41:33.727Z,22.50
2017-05-13T15:44:00.996Z,23.50
2017-05-13T15:46:28.976Z,24.90
2017-05-13T15:48:56.334Z,24.80
2017-05-13T15:51:23.743Z,25.60
2017-05-13T15:53:51.014Z,25.50
2017-05-13T15:56:18.948Z,25.60
2017-05-13T15:58:46.345Z,25.30
2017-05-13T16:01:14.276Z,24.90
2017-05-13T16:03:41.516Z,24.30
2017-05-13T16:06:08.823Z,23.90
2017-05-13T16:08:36.799Z,23.80
2017-05-13T16:11:04.063Z,23.80
2017-05-13T16:13:31.280Z,23.60
2017-05-13T16:15:59.190Z,23.30
2017-05-13T16:18:26.417Z,23.20
2017-05-13T16:20:53.797Z,23.00
2017-05-13T16:23:21.037Z,22.90
2017-05-13T16:25:48.275Z,22.80
2017-05-13T16:28:15.529Z,22.40
2017-05-13T16:30:42.758Z,22.50
2017-05-13T16:33:10.965Z,22.40
2017-05-13T16:35:38.172Z,22.50
2017-05-13T16:38:05.597Z,22.60
2017-05-13T16:40:32.796Z,22.60
2017-05-13T16:43:00.735Z,22.60
2017-05-13T16:45:28.019Z,22.60
2017-05-13T16:47:55.997Z,22.40
2017-05-13T16:50:23.181Z,22.30
2017-05-13T16:52:50.378Z,22.40
2017-05-13T16:55:18.376Z,22.40
2017-05-13T16:57:45.580Z,22.30
2017-05-13T17:00:12.715Z,22.20
2017-05-13T17:02:39.908Z,22.00
2017-05-13T17:05:07.123Z,21.80
2017-05-13T17:07:34.328Z,21.70
2017-05-13T17:10:02.526Z,21.50
2017-05-13T17:12:29.809Z,21.40
2017-05-13T17:14:57.009Z,21.30
2017-05-13T17:17:24.216Z,21.40
2017-05-13T17:19:52.307Z,21.20
2017-05-13T17:22:20.173Z,21.30
2017-05-13T17:24:47.365Z,21.20
2017-05-13T17:27:14.568Z,21.00
2017-05-13T17:29:42.541Z,20.90
2017-05-13T17:32:09.697Z,20.80
2017-05-13T17:34:36.910Z,20.70
2017-05-13T17:37:04.855Z,20.60
2017-05-13T17:39:32.079Z,20.60
2017-05-13T17:41:59.249Z,20.60
2017-05-13T17:44:26.498Z,20.50
2017-05-13T17:46:53.694Z,20.50
2017-05-13T17:49:21.657Z,20.40
2017-05-13T17:51:49.636Z,20.30
2017-05-13T17:54:17.601Z,20.00
2017-05-13T17:56:45.495Z,19.80
2017-05-13T17:59:12.832Z,19.80
2017-05-13T18:01:40.704Z,19.80
2017-05-13T18:04:07.931Z,19.80
2017-05-13T18:06:35.084Z,19.70
2017-05-13T18:09:08.259Z,19.30
2017-05-13T18:11:35.394Z,19.00
2017-05-13T18:14:03.393Z,18.80
2017-05-13T18:16:30.692Z,18.90
2017-05-13T18:18:57.897Z,18.90
2017-05-13T18:21:25.105Z,18.90
2017-05-13T18:23:53.036Z,18.80
2017-05-13T18:26:20.247Z,18.70
2017-05-13T18:28:47.411Z,18.50
2017-05-13T18:31:15.031Z,18.50
2017-05-13T18:33:43.060Z,18.30
2017-05-13T18:36:10.237Z,18.20
2017-05-13T18:38:37.459Z,18.00
2017-05-13T18:41:04.697Z,17.90
2017-05-13T18:43:38.834Z,17.80
2017-05-13T18:46:06.046Z,17.60
2017-05-13T18:48:33.310Z,17.50
2017-05-13T18:51:00.540Z,17.30
2017-05-13T18:53:27.874Z,17.10
2017-05-13T18:55:55.837Z,17.00
2017-05-13T18:58:23.782Z,16.90
2017-05-13T19:00:51.010Z,17.00
2017-05-13T19:03:18.762Z,16.80
2017-05-13T19:05:45.926Z,16.80
2017-05-13T19:08:13.057Z,16.70
2017-05-13T19:10:40.299Z,16.70
2017-05-13T19:13:08.524Z,16.50
2017-05-13T19:15:35.752Z,16.60
2017-05-13T19:18:02.992Z,16.60
2017-05-13T19:20:30.155Z,16.70
2017-05-13T19:22:57.348Z,16.70
2017-05-13T19:25:25.334Z,16.80
2017-05-13T19:27:52.632Z,16.80
2017-05-13T19:30:19.888Z,16.80
2017-05-13T19:32:47.096Z,16.70
2017-05-13T19:35:14.487Z,16.70
2017-05-13T19:37:41.699Z,16.70
2017-05-13T19:40:08.911Z,16.60
2017-05-13T19:42:36.175Z,16.50
2017-05-13T19:45:04.230Z,16.50
2017-05-13T19:47:31.409Z,16.40
2017-05-13T19:49:58.645Z,16.30
2017-05-13T19:52:26.717Z,16.20
2017-05-13T19:54:54.771Z,16.20
2017-05-13T19:57:21.981Z,16.10
2017-05-13T19:59:49.157Z,15.90
2017-05-13T20:02:16.438Z,15.90
2017-05-13T20:04:44.383Z,16.20
2017-05-13T20:07:11.692Z,16.20
2017-05-13T20:09:38.972Z,16.30
2017-05-13T20:12:06.226Z,16.50
2017-05-13T20:14:33.404Z,16.60
2017-05-13T20:17:00.620Z,16.50
2017-05-13T20:19:27.817Z,16.30
2017-05-13T20:21:56.690Z,16.20
2017-05-13T20:24:24.054Z,16.00
2017-05-13T20:26:51.264Z,16.00
2017-05-13T20:29:18.441Z,15.90
2017-05-13T20:31:45.744Z,15.80
2017-05-13T20:34:15.028Z,15.70
2017-05-13T20:36:40.912Z,15.60
2017-05-13T20:39:08.170Z,15.50
2017-05-13T20:41:36.087Z,15.30
2017-05-13T20:44:03.363Z,15.20
2017-05-13T20:46:30.606Z,15.10
2017-05-13T20:48:57.824Z,15.00
2017-05-13T20:51:24.983Z,14.90
2017-05-13T20:53:52.188Z,14.80
2017-05-13T20:56:19.398Z,14.70
2017-05-13T20:58:46.591Z,14.60
2017-05-13T21:01:13.871Z,14.40
2017-05-13T21:03:41.059Z,14.40
2017-05-13T21:06:08.245Z,14.30
2017-05-13T21:08:35.477Z,14.40
2017-05-13T21:11:02.700Z,14.40
2017-05-13T21:13:29.881Z,14.40
2017-05-13T21:15:57.217Z,14.30
2017-05-13T21:18:24.404Z,14.20
2017-05-13T21:20:51.569Z,14.10
2017-05-13T21:23:19.495Z,14.10
2017-05-13T21:25:47.357Z,14.10
2017-05-13T21:28:14.558Z,14.20
2017-05-13T21:30:42.458Z,14.10
2017-05-13T21:33:09.670Z,14.10
2017-05-13T21:35:37.584Z,14.10
2017-05-13T21:38:10.814Z,14.10
2017-05-13T21:40:38.001Z,14.00
2017-05-13T21:43:05.201Z,13.90
2017-05-13T21:45:32.425Z,13.80
2017-05-13T21:47:59.612Z,13.80
2017-05-13T21:50:26.781Z,14.00
2017-05-13T21:52:54.763Z,14.10
2017-05-13T21:55:21.983Z,14.20
2017-05-13T21:57:49.158Z,14.20
2017-05-13T22:00:16.323Z,14.20
2017-05-13T22:02:43.522Z,14.20
2017-05-13T22:05:10.866Z,14.30
2017-05-13T22:07:38.049Z,14.30
2017-05-13T22:10:06.046Z,14.30
2017-05-13T22:12:33.337Z,14.30
2017-05-13T22:15:00.524Z,14.20
2017-05-13T22:17:28.482Z,14.10
2017-05-13T22:19:56.427Z,14.10
2017-05-13T22:22:23.624Z,14.20
2017-05-13T22:24:50.799Z,14.20
2017-05-13T22:27:18.068Z,14.10
2017-05-13T22:29:45.215Z,13.80
2017-05-13T22:32:12.506Z,13.70
2017-05-13T22:34:40.436Z,13.80
2017-05-13T22:37:07.680Z,13.70
2017-05-13T22:39:34.845Z,13.70
2017-05-13T22:42:02.023Z,13.60
2017-05-13T22:44:30.056Z,13.50
2017-05-13T22:46:57.211Z,13.50
2017-05-13T22:49:24.399Z,13.60
2017-05-13T22:51:52.364Z,13.60
2017-05-13T22:54:20.291Z,13.50
2017-05-13T22:56:47.481Z,13.50
2017-05-13T22:59:15.407Z,13.50
2017-05-13T23:01:42.596Z,13.50
2017-05-13T23:04:10.523Z,13.40
2017-05-13T23:06:37.706Z,13.30
2017-05-13T23:09:05.640Z,13.30
2017-05-13T23:11:32.800Z,13.30
2017-05-13T23:14:00.017Z,13.30
2017-05-13T23:16:27.321Z,13.30
2017-05-13T23:18:55.232Z,13.10
2017-05-13T23:21:22.415Z,12.90
2017-05-13T23:23:49.579Z,13.00
2017-05-13T23:26:16.760Z,13.10
2017-05-13T23:28:44.000Z,13.10
2017-05-13T23:31:11.888Z,13.10
2017-05-13T23:33:39.168Z,13.20
2017-05-13T23:36:06.420Z,13.20
2017-05-13T23:38:33.575Z,13.20
2017-05-13T23:41:00.760Z,13.20
2017-05-13T23:43:28.724Z,13.20
2017-05-13T23:45:55.839Z,13.20
2017-05-13T23:48:22.988Z,13.30
2017-05-13T23:50:50.244Z,13.40
2017-05-13T23:53:17.436Z,13.30
2017-05-13T23:55:45.372Z,13.30
2017-05-13T23:58:19.600Z,13.30
